Time;durP1;ratioP1;P1;durP2;ratioP2;P2;SDS_P1;SDS_P2;PMS_P1;PMS_P2;Temp;Humidity;BMP_temperature;BMP_pressure;BME280_temperature;BME280_humidity;BME280_pressure;Samples;Min_cycle;Max_cycle;Signal;HPM_P1;HPM_P2
2021/09/25 00:00:46;;;;;;;9.80;7.50;;;15.30;99.90;;;;;;5073426;28;20458;-57
2021/09/25 00:03:12;;;;;;;8.83;7.70;;;15.30;99.90;;;;;;5069104;28;20643;-56
2021/09/25 00:05:39;;;;;;;13.33;8.90;;;15.20;99.90;;;;;;5066996;28;20273;-60
2021/09/25 00:08:05;;;;;;;8.70;7.90;;;15.20;99.90;;;;;;5073175;28;20640;-60
2021/09/25 00:10:33;;;;;;;9.37;8.43;;;15.20;99.90;;;;;;5072961;28;20444;-55
2021/09/25 00:12:59;;;;;;;9.70;8.20;;;15.10;99.90;;;;;;5072736;28;20426;-60
2021/09/25 00:15:29;;;;;;;8.50;6.83;;;15.10;99.90;;;;;;5072906;28;20459;-58
2021/09/25 00:17:56;;;;;;;8.63;7.83;;;15.10;99.90;;;;;;5073364;28;20169;-59
2021/09/25 00:20:22;;;;;;;9.50;8.53;;;15.20;99.90;;;;;;5072907;28;20425;-58
2021/09/25 00:22:48;;;;;;;7.13;6.53;;;15.20;99.90;;;;;;5071993;28;20412;-59
2021/09/25 00:25:14;;;;;;;8.20;7.40;;;15.20;99.90;;;;;;5072882;28;20450;-59
2021/09/25 00:27:39;;;;;;;7.67;6.90;;;15.10;99.90;;;;;;5072985;28;20182;-60
2021/09/25 00:30:07;;;;;;;7.40;6.80;;;15.20;99.90;;;;;;5073473;28;20510;-60
2021/09/25 00:32:33;;;;;;;8.03;7.23;;;15.20;99.90;;;;;;5073679;28;20648;-59
2021/09/25 00:34:59;;;;;;;8.40;7.03;;;15.10;99.90;;;;;;5072736;28;20532;-60
2021/09/25 00:37:24;;;;;;;7.23;6.63;;;15.20;99.90;;;;;;5072920;28;20642;-59
2021/09/25 00:39:50;;;;;;;8.50;6.67;;;15.20;99.90;;;;;;5072672;28;20651;-60
2021/09/25 00:42:16;;;;;;;7.87;7.00;;;15.10;99.90;;;;;;5072964;28;20168;-60
2021/09/25 00:44:41;;;;;;;7.83;7.03;;;15.10;99.90;;;;;;5072318;28;20685;-57
2021/09/25 00:47:07;;;;;;;8.30;7.23;;;15.00;99.90;;;;;;5073107;28;20176;-58
2021/09/25 00:49:32;;;;;;;7.57;6.87;;;14.80;99.90;;;;;;5077361;28;20171;-60
2021/09/25 00:51:58;;;;;;;11.67;6.87;;;15.00;99.90;;;;;;5076610;28;20180;-59
2021/09/25 00:54:24;;;;;;;7.80;7.10;;;15.10;99.90;;;;;;5076085;28;20210;-60
2021/09/25 00:56:50;;;;;;;7.03;6.33;;;15.10;99.90;;;;;;5076506;28;20252;-60
2021/09/25 00:59:18;;;;;;;7.90;7.10;;;15.20;99.90;;;;;;5076210;28;20260;-60
2021/09/25 01:01:44;;;;;;;8.13;7.00;;;15.10;99.90;;;;;;5076573;28;20407;-58
2021/09/25 01:04:10;;;;;;;6.80;6.10;;;15.10;99.90;;;;;;5076508;28;20491;-60
2021/09/25 01:06:36;;;;;;;7.20;6.50;;;15.00;99.90;;;;;;5076526;28;20420;-60
2021/09/25 01:09:03;;;;;;;6.60;6.00;;;14.90;99.90;;;;;;5076315;28;20438;-60
2021/09/25 01:11:30;;;;;;;6.47;5.97;;;14.90;99.90;;;;;;5075834;28;20446;-60
2021/09/25 01:13:55;;;;;;;7.00;6.40;;;14.90;99.90;;;;;;5075823;28;20446;-60
2021/09/25 01:16:22;;;;;;;8.57;7.67;;;14.90;99.90;;;;;;5076088;28;20403;-59
2021/09/25 01:18:49;;;;;;;8.33;7.53;;;14.80;99.90;;;;;;5075991;28;20250;-59
2021/09/25 01:21:16;;;;;;;7.13;5.57;;;14.80;99.90;;;;;;5075908;28;20501;-60
2021/09/25 01:23:41;;;;;;;8.90;7.30;;;14.60;99.90;;;;;;5075848;28;20468;-59
2021/09/25 01:26:07;;;;;;;6.80;6.20;;;14.60;99.90;;;;;;5075659;28;20816;-59
2021/09/25 01:28:34;;;;;;;8.77;7.90;;;14.60;99.90;;;;;;5075540;28;20205;-59
2021/09/25 01:31:01;;;;;;;7.93;7.20;;;14.60;99.90;;;;;;5075972;28;20837;-56
2021/09/25 01:33:32;;;;;;;8.00;7.20;;;14.60;99.90;;;;;;5075698;28;20511;-57
2021/09/25 01:35:58;;;;;;;6.60;5.90;;;14.60;99.90;;;;;;5076063;28;20500;-59
2021/09/25 01:38:24;;;;;;;7.43;6.80;;;14.60;99.90;;;;;;5075815;28;20402;-57
2021/09/25 01:40:50;;;;;;;6.53;5.90;;;14.50;99.90;;;;;;5075600;28;20177;-59
2021/09/25 01:43:16;;;;;;;7.23;6.57;;;14.50;99.90;;;;;;5075801;28;20512;-57
2021/09/25 01:45:46;;;;;;;7.67;6.90;;;14.40;99.90;;;;;;5076279;28;20486;-58
2021/09/25 01:48:13;;;;;;;9.20;7.33;;;14.40;99.90;;;;;;5075988;28;20499;-56
2021/09/25 01:50:39;;;;;;;7.33;6.63;;;14.40;99.90;;;;;;5075483;28;20418;-55
2021/09/25 01:53:05;;;;;;;7.97;6.80;;;14.40;99.90;;;;;;5075515;28;20487;-57
2021/09/25 01:55:31;;;;;;;8.03;7.23;;;14.40;99.90;;;;;;5074931;28;20569;-57
2021/09/25 01:57:58;;;;;;;7.70;7.00;;;14.30;99.90;;;;;;5075435;28;20411;-59
2021/09/25 02:00:24;;;;;;;7.93;7.23;;;14.30;99.90;;;;;;5074706;28;20173;-55
2021/09/25 02:02:51;;;;;;;8.83;7.93;;;14.30;99.90;;;;;;5074171;28;20411;-56
2021/09/25 02:05:17;;;;;;;7.43;6.83;;;14.30;99.90;;;;;;5057227;28;20947;-58
2021/09/25 02:07:47;;;;;;;6.77;6.17;;;14.30;99.90;;;;;;5055398;28;20407;-56
2021/09/25 02:10:12;;;;;;;8.17;7.33;;;14.40;99.90;;;;;;5054800;28;20185;-57
2021/09/25 02:12:38;;;;;;;7.70;6.90;;;14.40;99.90;;;;;;5057831;28;20424;-60
2021/09/25 02:15:05;;;;;;;8.87;8.00;;;14.40;99.90;;;;;;5074633;28;20460;-59
2021/09/25 02:17:31;;;;;;;8.47;7.63;;;14.40;99.90;;;;;;5074968;28;20173;-59
2021/09/25 02:19:57;;;;;;;7.33;6.67;;;14.30;99.90;;;;;;5075186;28;20898;-59
2021/09/25 02:22:23;;;;;;;9.10;6.83;;;14.30;99.90;;;;;;5075264;28;20403;-59
2021/09/25 02:24:49;;;;;;;7.90;7.00;;;14.30;99.90;;;;;;5074788;28;20423;-59
2021/09/25 02:27:15;;;;;;;7.33;6.50;;;14.20;99.90;;;;;;5074767;28;20411;-59
2021/09/25 02:29:40;;;;;;;7.00;6.30;;;14.20;99.90;;;;;;5074609;28;20176;-55
2021/09/25 02:32:07;;;;;;;6.80;6.13;;;14.10;99.90;;;;;;5074921;28;20211;-56
2021/09/25 02:34:34;;;;;;;6.97;6.43;;;13.90;99.90;;;;;;5074765;28;20618;-60
2021/09/25 02:37:00;;;;;;;8.33;7.60;;;13.90;99.90;;;;;;5074785;28;20403;-56
2021/09/25 02:39:27;;;;;;;7.50;6.80;;;13.90;99.90;;;;;;5070974;28;20944;-61
2021/09/25 02:41:53;;;;;;;7.80;6.90;;;13.90;99.90;;;;;;5056088;28;20663;-53
2021/09/25 02:44:19;;;;;;;8.30;7.50;;;14.00;99.90;;;;;;5070932;28;20426;-58
2021/09/25 02:46:47;;;;;;;10.03;8.70;;;14.00;99.90;;;;;;5074340;28;20503;-56
2021/09/25 02:49:16;;;;;;;7.23;6.53;;;13.90;99.90;;;;;;5074603;28;20261;-57
2021/09/25 02:51:42;;;;;;;8.33;7.13;;;14.00;99.90;;;;;;5074236;28;20906;-56
2021/09/25 02:54:08;;;;;;;9.53;8.63;;;14.00;99.90;;;;;;5074042;28;20552;-60
2021/09/25 02:56:34;;;;;;;7.50;6.80;;;13.90;99.90;;;;;;5073925;28;20228;-59
2021/09/25 02:58:59;;;;;;;7.73;7.03;;;14.00;99.90;;;;;;5055367;28;20412;-54
2021/09/25 03:01:25;;;;;;;8.47;7.57;;;14.00;99.90;;;;;;5054334;28;20542;-56
2021/09/25 03:03:54;;;;;;;8.37;6.73;;;13.80;99.90;;;;;;5054156;28;20197;-57
2021/09/25 03:06:23;;;;;;;8.83;7.93;;;13.80;99.90;;;;;;5054320;28;20556;-59
2021/09/25 03:08:48;;;;;;;7.50;6.50;;;13.80;99.90;;;;;;5053958;28;20424;-59
2021/09/25 03:11:14;;;;;;;8.43;7.60;;;13.90;99.90;;;;;;5052743;28;20413;-58
2021/09/25 03:13:40;;;;;;;7.83;7.00;;;13.80;99.90;;;;;;5065200;28;20182;-57
2021/09/25 03:16:06;;;;;;;8.77;7.87;;;13.90;99.90;;;;;;5073658;28;20560;-60
2021/09/25 03:18:31;;;;;;;8.80;7.90;;;13.90;99.90;;;;;;5073975;28;20181;-59
2021/09/25 03:20:57;;;;;;;8.13;7.30;;;13.80;99.90;;;;;;5074983;28;20251;-58
2021/09/25 03:23:22;;;;;;;7.70;6.40;;;13.70;99.90;;;;;;5073656;28;20254;-56
2021/09/25 03:25:48;;;;;;;7.40;6.70;;;13.70;99.90;;;;;;5073282;28;20191;-57
2021/09/25 03:28:13;;;;;;;7.20;6.50;;;13.70;99.90;;;;;;5073612;28;20648;-58
2021/09/25 03:30:39;;;;;;;8.17;7.17;;;13.50;99.90;;;;;;5074427;28;20173;-59
2021/09/25 03:33:05;;;;;;;7.20;6.50;;;13.60;99.90;;;;;;5073554;28;20172;-60
2021/09/25 03:35:31;;;;;;;8.63;7.83;;;13.70;99.90;;;;;;5073552;28;20229;-59
2021/09/25 03:37:56;;;;;;;8.00;7.20;;;13.70;99.90;;;;;;5073491;28;20170;-58
2021/09/25 03:40:22;;;;;;;8.90;8.03;;;13.70;99.90;;;;;;5073182;28;20413;-56
2021/09/25 03:42:49;;;;;;;8.00;7.30;;;13.60;99.90;;;;;;5073315;28;20169;-60
2021/09/25 03:45:15;;;;;;;10.03;8.03;;;13.60;99.90;;;;;;5072996;28;20197;-60
2021/09/25 03:47:40;;;;;;;6.80;6.10;;;13.60;99.90;;;;;;5073582;28;20459;-59
2021/09/25 03:50:06;;;;;;;8.60;7.80;;;13.60;99.90;;;;;;5073567;28;20173;-57
2021/09/25 03:52:32;;;;;;;7.23;6.60;;;13.70;99.90;;;;;;5073294;28;20413;-59
2021/09/25 03:54:58;;;;;;;8.50;6.53;;;13.60;99.90;;;;;;5095429;22;20220;-55
2021/09/25 03:57:23;;;;;;;6.80;6.10;;;13.60;99.90;;;;;;5072617;28;20206;-57
2021/09/25 03:59:49;;;;;;;7.67;6.87;;;13.50;99.90;;;;;;5073132;28;20253;-54
2021/09/25 04:02:15;;;;;;;8.20;7.40;;;13.50;99.90;;;;;;5073357;28;20177;-55
2021/09/25 04:04:40;;;;;;;8.00;7.20;;;13.50;99.90;;;;;;5072094;28;20195;-55
2021/09/25 04:07:06;;;;;;;7.60;6.77;;;13.50;99.90;;;;;;5073243;28;20297;-54
2021/09/25 04:09:31;;;;;;;7.67;6.43;;;13.50;99.90;;;;;;5073298;28;20192;-55
2021/09/25 04:11:57;;;;;;;7.70;7.00;;;13.40;99.90;;;;;;5047146;28;20199;-56
2021/09/25 04:14:23;;;;;;;8.50;7.70;;;13.40;99.90;;;;;;5033113;28;20694;-53
2021/09/25 04:16:49;;;;;;;7.43;6.73;;;13.40;99.90;;;;;;5033830;28;20179;-59
2021/09/25 04:19:15;;;;;;;10.43;7.57;;;13.40;99.90;;;;;;5033551;28;20394;-59
2021/09/25 04:21:41;;;;;;;7.43;6.70;;;13.30;99.90;;;;;;5033776;28;20893;-56
2021/09/25 04:24:07;;;;;;;7.90;7.10;;;13.30;99.90;;;;;;5037792;28;20176;-55
2021/09/25 04:26:32;;;;;;;7.10;6.20;;;13.40;99.90;;;;;;5073741;28;20438;-58
2021/09/25 04:28:58;;;;;;;9.07;7.40;;;13.40;99.90;;;;;;5076883;28;20165;-59
2021/09/25 04:31:24;;;;;;;8.00;7.20;;;13.40;99.90;;;;;;5077340;28;20244;-59
2021/09/25 04:33:50;;;;;;;8.27;7.47;;;13.30;99.90;;;;;;5072618;28;20168;-59
2021/09/25 04:36:16;;;;;;;7.17;6.57;;;13.30;99.90;;;;;;5057220;28;20999;-58
2021/09/25 04:38:41;;;;;;;7.33;6.63;;;13.30;99.90;;;;;;5056984;28;20166;-57
2021/09/25 04:41:07;;;;;;;8.40;7.60;;;13.20;99.90;;;;;;5056584;28;20554;-55
2021/09/25 04:43:34;;;;;;;7.87;7.17;;;13.20;99.90;;;;;;5055512;28;20696;-58
2021/09/25 04:45:59;;;;;;;7.37;6.73;;;13.20;99.90;;;;;;5056991;28;20197;-58
2021/09/25 04:48:25;;;;;;;8.10;7.40;;;13.20;99.90;;;;;;5056640;28;20427;-59
2021/09/25 04:50:51;;;;;;;9.40;8.53;;;13.20;99.90;;;;;;5055543;28;20277;-58
2021/09/25 04:53:16;;;;;;;7.60;6.60;;;13.20;99.90;;;;;;5056698;28;20174;-57
2021/09/25 04:55:43;;;;;;;7.97;7.17;;;13.20;99.90;;;;;;5067310;28;20212;-59
2021/09/25 04:58:09;;;;;;;9.43;7.60;;;13.10;99.90;;;;;;5076498;28;20504;-58
2021/09/25 05:00:36;;;;;;;7.43;6.73;;;13.10;99.90;;;;;;5076465;28;20808;-58
2021/09/25 05:03:02;;;;;;;9.80;8.33;;;13.20;99.90;;;;;;5076735;28;20735;-58
2021/09/25 05:05:27;;;;;;;8.40;7.60;;;13.20;99.90;;;;;;5076399;28;20436;-58
2021/09/25 05:07:53;;;;;;;8.23;7.37;;;13.10;99.90;;;;;;5076578;28;20412;-56
2021/09/25 05:10:19;;;;;;;10.13;8.97;;;13.10;99.90;;;;;;5076076;28;20262;-59
2021/09/25 05:12:45;;;;;;;12.13;8.63;;;13.00;99.90;;;;;;5076626;28;20175;-58
2021/09/25 05:15:12;;;;;;;8.57;7.80;;;13.10;99.90;;;;;;5076025;28;20208;-58
2021/09/25 05:17:37;;;;;;;7.87;7.13;;;13.00;99.90;;;;;;5077174;28;20436;-58
2021/09/25 05:20:05;;;;;;;8.30;7.50;;;13.00;99.90;;;;;;5076207;28;20404;-57
2021/09/25 05:22:32;;;;;;;8.40;7.50;;;13.00;99.90;;;;;;5076032;28;20162;-59
2021/09/25 05:24:58;;;;;;;8.20;7.47;;;13.00;99.90;;;;;;5076005;28;20852;-58
2021/09/25 05:27:24;;;;;;;7.80;7.00;;;13.00;99.90;;;;;;5076459;28;20448;-58
2021/09/25 05:29:50;;;;;;;8.53;7.20;;;13.10;99.90;;;;;;5076073;28;20201;-57
2021/09/25 05:32:15;;;;;;;9.27;7.10;;;13.20;99.90;;;;;;5065234;28;20613;-58
2021/09/25 05:34:42;;;;;;;8.87;7.97;;;13.10;99.90;;;;;;5054792;28;21044;-59
2021/09/25 05:37:08;;;;;;;8.53;7.63;;;13.10;99.90;;;;;;5056724;28;20186;-59
2021/09/25 05:39:34;;;;;;;10.00;8.00;;;13.10;99.90;;;;;;5055632;28;20413;-55
2021/09/25 05:41:59;;;;;;;8.20;7.40;;;13.10;99.90;;;;;;5055458;28;20398;-58
2021/09/25 05:44:25;;;;;;;8.43;6.70;;;13.20;99.90;;;;;;5055400;28;20518;-60
2021/09/25 05:46:51;;;;;;;8.67;7.80;;;13.20;99.90;;;;;;5056020;28;20325;-59
2021/09/25 05:49:16;;;;;;;7.40;6.70;;;13.20;99.90;;;;;;5055680;28;20690;-59
2021/09/25 05:51:42;;;;;;;7.23;6.53;;;13.30;99.90;;;;;;5055744;28;20178;-60
2021/09/25 05:54:08;;;;;;;7.60;6.83;;;13.30;99.90;;;;;;5055424;28;20248;-59
2021/09/25 05:56:34;;;;;;;7.87;6.63;;;13.30;99.90;;;;;;5073405;28;20560;-59
2021/09/25 05:59:00;;;;;;;7.97;7.07;;;13.30;99.90;;;;;;5075485;28;20169;-60
2021/09/25 06:01:26;;;;;;;7.40;6.80;;;13.30;99.90;;;;;;5075599;28;20415;-60
2021/09/25 06:03:51;;;;;;;9.10;8.23;;;13.40;99.90;;;;;;5075514;28;20165;-59
2021/09/25 06:06:17;;;;;;;10.20;8.07;;;13.40;99.90;;;;;;5046350;28;20191;-58
2021/09/25 06:08:42;;;;;;;7.53;6.83;;;13.40;99.90;;;;;;5035769;28;20534;-59
2021/09/25 06:11:08;;;;;;;8.17;7.37;;;13.50;99.90;;;;;;5035134;28;20172;-58
2021/09/25 06:13:33;;;;;;;9.20;7.07;;;13.50;99.90;;;;;;5035170;28;20174;-59
2021/09/25 06:15:59;;;;;;;8.30;7.60;;;13.50;99.90;;;;;;5035114;28;20680;-58
2021/09/25 06:18:25;;;;;;;8.07;7.00;;;13.60;99.90;;;;;;5035228;28;20254;-59
2021/09/25 06:20:50;;;;;;;9.50;7.90;;;13.60;99.90;;;;;;5035084;28;20191;-58
2021/09/25 06:23:16;;;;;;;9.20;7.90;;;13.60;99.90;;;;;;5035301;28;20697;-57
2021/09/25 06:25:42;;;;;;;8.37;7.53;;;13.70;99.90;;;;;;5057140;28;20218;-58
2021/09/25 06:28:07;;;;;;;8.63;7.83;;;13.70;99.90;;;;;;5057768;28;20547;-56
2021/09/25 06:30:39;;;;;;;8.27;7.47;;;13.70;99.90;;;;;;5053313;28;20286;-58
2021/09/25 06:33:06;;;;;;;8.60;7.57;;;13.70;99.90;;;;;;5055009;28;20177;-57
2021/09/25 06:35:31;;;;;;;12.77;8.57;;;13.80;99.90;;;;;;5055023;28;20458;-59
2021/09/25 06:37:57;;;;;;;7.70;7.00;;;13.80;99.90;;;;;;5054563;28;20821;-57
2021/09/25 06:40:22;;;;;;;8.07;7.27;;;13.80;99.90;;;;;;5054234;28;20250;-59
2021/09/25 06:42:48;;;;;;;9.40;8.47;;;13.80;99.90;;;;;;5052895;28;20415;-58
2021/09/25 06:45:13;;;;;;;8.90;8.00;;;13.80;99.90;;;;;;5053752;28;20421;-60
2021/09/25 06:47:39;;;;;;;9.67;8.77;;;13.90;99.90;;;;;;5054694;28;20178;-59
2021/09/25 06:50:05;;;;;;;9.03;7.93;;;13.90;99.90;;;;;;5054662;28;20170;-60
2021/09/25 06:52:31;;;;;;;9.53;7.90;;;13.90;99.90;;;;;;5054469;28;20173;-60
2021/09/25 06:54:56;;;;;;;8.10;7.30;;;14.00;99.90;;;;;;5058870;28;20490;-61
2021/09/25 06:57:22;;;;;;;8.23;7.43;;;14.10;99.90;;;;;;5074183;28;20169;-59
2021/09/25 06:59:47;;;;;;;9.67;8.03;;;14.10;99.90;;;;;;5074071;28;20165;-59
2021/09/25 07:02:13;;;;;;;8.90;8.00;;;14.50;99.90;;;;;;5074308;28;20172;-61
2021/09/25 07:04:38;;;;;;;7.60;6.90;;;15.00;99.90;;;;;;5074409;28;20193;-60
2021/09/25 07:07:04;;;;;;;9.23;7.67;;;15.20;99.90;;;;;;5073955;28;20522;-60
2021/09/25 07:09:30;;;;;;;8.73;7.93;;;15.20;99.90;;;;;;5073800;28;20177;-59
2021/09/25 07:11:55;;;;;;;8.47;7.30;;;15.30;99.90;;;;;;5073672;28;20169;-59
2021/09/25 07:14:21;;;;;;;8.20;7.43;;;15.40;99.90;;;;;;5073570;28;20631;-58
2021/09/25 07:16:46;;;;;;;10.10;8.50;;;15.40;99.90;;;;;;5073767;28;20165;-58
2021/09/25 07:19:12;;;;;;;8.07;7.27;;;15.50;99.90;;;;;;5074133;28;20170;-60
2021/09/25 07:21:38;;;;;;;8.90;7.00;;;15.60;99.90;;;;;;5065069;28;20180;-60
2021/09/25 07:24:04;;;;;;;8.40;7.60;;;15.70;99.90;;;;;;5044330;28;20582;-58
2021/09/25 07:26:29;;;;;;;8.43;6.80;;;15.80;99.90;;;;;;5045049;28;20284;-61
2021/09/25 07:28:55;;;;;;;7.30;6.60;;;15.90;99.90;;;;;;5053749;28;20571;-59
2021/09/25 07:31:21;;;;;;;6.90;6.30;;;16.10;99.90;;;;;;5053981;28;20235;-61
2021/09/25 07:33:46;;;;;;;7.77;6.80;;;16.20;99.90;;;;;;5053779;28;20198;-59
2021/09/25 07:36:12;;;;;;;8.13;7.20;;;16.30;99.90;;;;;;5053386;28;20468;-60
2021/09/25 07:38:38;;;;;;;7.73;6.93;;;16.30;99.90;;;;;;5053422;28;20173;-57
2021/09/25 07:41:04;;;;;;;7.93;7.13;;;16.40;99.90;;;;;;5051789;28;20170;-58
2021/09/25 07:43:30;;;;;;;7.07;6.37;;;16.60;99.90;;;;;;5053705;28;20639;-59
2021/09/25 07:45:57;;;;;;;8.17;7.37;;;16.60;99.90;;;;;;5053011;28;20436;-60
2021/09/25 07:48:23;;;;;;;9.37;8.37;;;16.70;99.90;;;;;;5053600;28;20510;-59
2021/09/25 07:50:49;;;;;;;8.67;7.77;;;16.80;99.90;;;;;;5053619;28;20408;-58
2021/09/25 07:53:15;;;;;;;8.20;7.40;;;17.00;99.90;;;;;;5053732;28;20890;-58
2021/09/25 07:55:40;;;;;;;7.80;7.07;;;17.10;99.90;;;;;;5063799;28;20250;-59
2021/09/25 07:58:06;;;;;;;7.90;7.10;;;17.20;99.90;;;;;;5071287;28;20193;-56
2021/09/25 08:00:32;;;;;;;10.20;9.20;;;17.30;99.90;;;;;;5073008;28;20207;-60
2021/09/25 08:02:58;;;;;;;8.60;7.70;;;17.40;99.90;;;;;;5066368;28;20531;-59
2021/09/25 08:05:24;;;;;;;9.03;8.10;;;17.50;99.90;;;;;;5032076;28;20441;-60
2021/09/25 08:07:49;;;;;;;8.30;7.27;;;17.60;99.90;;;;;;5033211;28;20537;-61
2021/09/25 08:10:16;;;;;;;8.90;7.80;;;17.70;99.90;;;;;;5033310;28;20535;-60
2021/09/25 08:12:42;;;;;;;9.50;8.50;;;17.80;99.90;;;;;;5033481;28;20250;-59
2021/09/25 08:15:10;;;;;;;8.83;7.73;;;17.90;99.90;;;;;;5033097;28;20481;-61
2021/09/25 08:17:36;;;;;;;8.63;7.53;;;17.90;99.90;;;;;;5033347;28;20403;-60
2021/09/25 08:20:04;;;;;;;10.27;8.10;;;17.50;99.90;;;;;;5033099;28;20401;-59
2021/09/25 08:22:29;;;;;;;8.50;7.70;;;17.60;99.90;;;;;;5033003;28;20167;-60
2021/09/25 08:24:55;;;;;;;8.40;7.47;;;17.90;99.90;;;;;;5042515;28;20438;-59
2021/09/25 08:27:20;;;;;;;9.73;7.37;;;18.10;99.90;;;;;;5072459;28;20174;-60
2021/09/25 08:29:46;;;;;;;8.90;7.53;;;18.10;99.90;;;;;;5072691;28;20167;-60
2021/09/25 08:32:11;;;;;;;9.83;8.50;;;18.10;99.90;;;;;;5072698;28;20174;-58
2021/09/25 08:34:37;;;;;;;7.80;6.97;;;18.10;99.90;;;;;;5072586;28;20201;-60
2021/09/25 08:37:05;;;;;;;8.70;7.97;;;18.20;99.90;;;;;;5072771;28;20167;-55
2021/09/25 08:39:31;;;;;;;8.83;7.77;;;18.40;99.90;;;;;;5072850;28;20193;-59
2021/09/25 08:41:59;;;;;;;9.20;8.10;;;18.40;99.90;;;;;;5072364;28;20408;-60
2021/09/25 08:44:24;;;;;;;8.60;7.80;;;18.50;99.90;;;;;;5072314;28;20404;-58
2021/09/25 08:46:52;;;;;;;9.43;8.43;;;18.60;99.90;;;;;;5072722;28;20405;-59
2021/09/25 08:49:17;;;;;;;9.07;8.17;;;18.70;99.90;;;;;;5072542;28;20537;-58
2021/09/25 08:51:43;;;;;;;9.73;7.70;;;18.80;99.90;;;;;;5072826;28;20404;-58
2021/09/25 08:54:08;;;;;;;9.40;8.17;;;18.80;99.90;;;;;;5071131;28;20174;-60
2021/09/25 08:56:34;;;;;;;8.80;7.37;;;18.80;99.90;;;;;;5072010;28;20237;-60
2021/09/25 08:59:00;;;;;;;8.57;7.77;;;18.90;99.90;;;;;;5072614;28;20170;-58
2021/09/25 09:01:30;;;;;;;8.87;7.53;;;18.90;99.90;;;;;;5072174;28;20219;-58
2021/09/25 09:03:57;;;;;;;8.77;7.97;;;19.00;99.90;;;;;;5072927;28;20166;-60
2021/09/25 09:06:28;;;;;;;9.63;8.07;;;19.10;99.90;;;;;;5072569;28;20420;-59
2021/09/25 09:08:58;;;;;;;10.97;8.40;;;19.20;99.90;;;;;;5073946;28;20947;-59
2021/09/25 09:11:24;;;;;;;9.23;8.33;;;19.20;99.90;;;;;;5075844;28;20880;-59
2021/09/25 09:13:56;;;;;;;8.70;7.90;;;19.30;99.90;;;;;;5076026;28;20404;-59
2021/09/25 09:16:22;;;;;;;8.57;7.30;;;19.50;99.90;;;;;;5075967;28;20273;-61
2021/09/25 09:18:50;;;;;;;7.80;7.10;;;19.50;99.90;;;;;;5076246;28;20504;-60
2021/09/25 09:21:29;;;;;;;7.03;6.43;;;19.70;99.90;;;;;;5076352;28;20169;-60
2021/09/25 09:23:56;;;;;;;8.90;7.20;;;19.70;99.90;;;;;;5075968;28;20385;-60
2021/09/25 09:26:41;;;;;;;8.70;7.00;;;19.80;99.90;;;;;;5075420;28;20803;-58
2021/09/25 09:29:09;;;;;;;7.90;7.07;;;20.00;99.90;;;;;;5075956;28;20418;-58
2021/09/25 09:31:38;;;;;;;7.57;6.80;;;20.10;99.90;;;;;;5075904;28;20411;-60
2021/09/25 09:34:06;;;;;;;12.93;8.00;;;20.20;99.90;;;;;;5075990;28;20763;-60
2021/09/25 09:36:36;;;;;;;7.83;7.03;;;20.20;99.90;;;;;;5075443;28;20870;-59
2021/09/25 09:39:15;;;;;;;10.63;7.77;;;20.20;99.90;;;;;;5075837;28;20408;-59
2021/09/25 09:41:51;;;;;;;7.67;6.97;;;20.30;99.90;;;;;;5075385;28;20442;-59
2021/09/25 09:44:21;;;;;;;9.13;7.30;;;20.40;99.90;;;;;;5075631;28;20395;-60
2021/09/25 09:46:52;;;;;;;10.17;8.20;;;20.60;99.90;;;;;;5074565;28;20439;-60
2021/09/25 09:49:20;;;;;;;7.80;7.20;;;20.70;99.90;;;;;;5075457;28;20381;-59
2021/09/25 09:51:55;;;;;;;9.20;8.37;;;20.80;99.90;;;;;;5075761;28;20777;-60
2021/09/25 09:54:32;;;;;;;8.80;7.90;;;20.90;99.90;;;;;;5059353;28;20424;-60
2021/09/25 09:57:19;;;;;;;7.40;6.67;;;21.10;99.90;;;;;;5043532;23;20873;-61
2021/09/25 09:59:46;;;;;;;10.00;6.60;;;21.20;99.90;;;;;;5015222;28;20403;-60
2021/09/25 10:02:12;;;;;;;7.90;6.53;;;21.20;99.90;;;;;;5015273;28;20574;-59
2021/09/25 10:04:39;;;;;;;11.50;7.80;;;21.30;99.90;;;;;;5014947;28;20894;-61
2021/09/25 10:07:06;;;;;;;8.60;7.80;;;21.50;99.90;;;;;;5015117;28;20569;-60
2021/09/25 10:09:34;;;;;;;7.40;6.70;;;21.60;99.90;;;;;;5015038;28;20415;-60
2021/09/25 10:12:02;;;;;;;8.20;7.20;;;21.90;99.90;;;;;;5014518;28;20395;-60
2021/09/25 10:14:36;;;;;;;8.00;6.47;;;22.10;99.90;;;;;;5014504;28;20403;-59
2021/09/25 10:17:04;;;;;;;6.63;6.00;;;22.20;99.90;;;;;;5011936;28;20431;-61
2021/09/25 10:19:31;;;;;;;5.63;5.13;;;22.40;99.90;;;;;;4984334;28;20905;-59
2021/09/25 10:22:02;;;;;;;9.53;5.40;;;22.50;99.90;;;;;;4995199;28;20823;-61
2021/09/25 10:24:30;;;;;;;5.33;4.90;;;22.50;99.90;;;;;;4995668;28;20487;-61
2021/09/25 10:27:00;;;;;;;5.13;4.73;;;22.50;99.90;;;;;;5008496;28;20473;-61
2021/09/25 10:29:26;;;;;;;5.43;4.93;;;22.70;99.90;;;;;;5014465;28;20425;-60
2021/09/25 10:32:20;;;;;;;6.27;5.60;;;22.90;99.90;;;;;;5014957;28;20402;-61
2021/09/25 10:35:10;;;;;;;5.77;5.20;;;22.90;99.90;;;;;;5014800;28;20467;-60
2021/09/25 10:37:44;;;;;;;6.20;5.70;;;23.10;99.90;;;;;;5014348;28;20494;-60
2021/09/25 10:40:21;;;;;;;5.07;4.67;;;23.60;99.90;;;;;;5014412;28;20443;-61
2021/09/25 10:42:55;;;;;;;5.00;4.50;;;24.20;99.90;;;;;;5014246;28;20930;-61
2021/09/25 10:45:21;;;;;;;4.73;4.30;;;24.40;99.90;;;;;;5014666;28;20466;-61
2021/09/25 10:47:46;;;;;;;6.30;5.33;;;24.40;99.90;;;;;;5014955;28;20429;-60
2021/09/25 10:50:14;;;;;;;4.90;4.40;;;24.50;99.90;;;;;;5014538;28;20407;-60
2021/09/25 10:52:51;;;;;;;5.33;4.83;;;24.50;99.90;;;;;;5014624;28;20633;-61
2021/09/25 10:55:28;;;;;;;5.93;5.43;;;24.90;99.90;;;;;;5013996;28;20528;-61
2021/09/25 10:58:25;;;;;;;4.93;4.43;;;25.00;99.90;;;;;;5014560;28;20383;-61
2021/09/25 11:01:09;;;;;;;5.30;4.90;;;25.80;99.90;;;;;;5014316;28;20387;-61
2021/09/25 11:03:41;;;;;;;6.80;4.67;;;26.50;99.00;;;;;;5014480;28;20383;-60
2021/09/25 11:06:14;;;;;;;4.67;4.10;;;28.30;97.10;;;;;;5014285;28;20462;-60
2021/09/25 11:09:18;;;;;;;5.50;4.80;;;29.90;93.80;;;;;;5014088;28;20418;-60
2021/09/25 11:12:09;;;;;;;4.23;3.90;;;31.80;91.30;;;;;;5004465;28;20473;-60
2021/09/25 11:14:47;;;;;;;4.40;4.00;;;32.80;87.10;;;;;;5013966;28;20811;-60
2021/09/25 11:17:19;;;;;;;4.60;4.20;;;33.10;79.20;;;;;;5014089;28;20437;-60
2021/09/25 11:19:58;;;;;;;4.70;4.37;;;32.20;79.30;;;;;;5014107;28;20410;-59
2021/09/25 11:22:35;;;;;;;7.33;4.40;;;33.10;76.60;;;;;;5013738;28;20438;-60
2021/09/25 11:25:06;;;;;;;5.40;4.90;;;33.00;75.30;;;;;;5014037;28;20752;-60
2021/09/25 11:27:33;;;;;;;4.50;4.20;;;33.80;75.30;;;;;;5013491;28;20434;-60
2021/09/25 11:30:08;;;;;;;5.13;4.50;;;34.10;72.00;;;;;;5013345;28;20407;-60
2021/09/25 11:33:00;;;;;;;4.37;3.93;;;34.10;69.30;;;;;;5012556;28;20493;-60
2021/09/25 11:35:32;;;;;;;4.07;3.77;;;34.20;69.30;;;;;;5004394;28;20455;-60
2021/09/25 11:38:04;;;;;;;4.43;4.03;;;33.40;69.40;;;;;;5013494;28;20387;-61
2021/09/25 11:40:42;;;;;;;4.23;3.90;;;33.50;70.60;;;;;;5013535;28;20407;-59
2021/09/25 11:43:10;;;;;;;4.93;4.43;;;34.30;69.30;;;;;;5013497;28;20402;-61
2021/09/25 11:45:44;;;;;;;4.67;4.27;;;34.20;66.50;;;;;;5013373;28;20962;-61
2021/09/25 11:48:12;;;;;;;4.37;3.97;;;34.70;66.20;;;;;;4998491;28;20759;-60
2021/09/25 11:50:45;;;;;;;4.77;4.37;;;33.80;66.90;;;;;;4974254;28;20409;-59
2021/09/25 11:53:16;;;;;;;6.20;4.80;;;33.90;67.50;;;;;;4974468;28;20416;-60
2021/09/25 11:55:43;;;;;;;4.17;3.87;;;33.60;68.50;;;;;;4980899;28;20477;-61
2021/09/25 11:58:14;;;;;;;8.77;3.97;;;34.90;66.00;;;;;;5013489;28;20387;-61
2021/09/25 12:00:57;;;;;;;4.77;3.77;;;35.90;63.20;;;;;;5013506;28;20384;-61
2021/09/25 12:03:28;;;;;;;4.17;3.83;;;36.50;60.00;;;;;;5013183;28;20397;-61
2021/09/25 12:05:55;;;;;;;3.67;3.47;;;36.40;59.30;;;;;;5013295;28;20515;-61
2021/09/25 12:08:27;;;;;;;4.30;3.90;;;36.20;59.70;;;;;;5012981;28;20417;-61
2021/09/25 12:10:54;;;;;;;3.77;3.43;;;36.70;58.00;;;;;;5012787;28;20398;-60
2021/09/25 12:13:27;;;;;;;3.80;3.50;;;36.50;58.30;;;;;;5013166;28;20508;-61
2021/09/25 12:15:55;;;;;;;3.70;3.40;;;36.70;56.30;;;;;;5012840;28;20466;-61
2021/09/25 12:18:23;;;;;;;5.33;3.50;;;37.40;55.10;;;;;;5013133;28;20775;-60
2021/09/25 12:20:53;;;;;;;3.40;3.10;;;37.40;53.10;;;;;;5013658;28;20892;-60
2021/09/25 12:23:23;;;;;;;3.37;3.07;;;36.90;52.90;;;;;;5013003;28;20395;-60
2021/09/25 12:25:49;;;;;;;3.83;3.53;;;37.10;54.80;;;;;;5013352;28;20443;-60
2021/09/25 12:28:35;;;;;;;5.63;3.00;;;38.10;52.30;;;;;;5013031;28;20413;-60
2021/09/25 12:31:07;;;;;;;3.43;3.20;;;38.80;51.40;;;;;;5012639;28;20406;-60
2021/09/25 12:33:34;;;;;;;4.03;3.70;;;36.80;52.10;;;;;;5012965;28;20945;-60
2021/09/25 12:36:10;;;;;;;3.87;3.03;;;36.90;52.30;;;;;;5012867;28;20541;-60
2021/09/25 12:38:43;;;;;;;4.50;3.50;;;38.20;51.10;;;;;;5013175;28;20390;-60
2021/09/25 12:41:12;;;;;;;3.50;3.23;;;38.90;50.30;;;;;;5012557;28;20383;-61
2021/09/25 12:43:44;;;;;;;4.47;3.67;;;38.40;49.60;;;;;;5014446;28;20414;-60
2021/09/25 12:46:15;;;;;;;3.53;3.23;;;36.70;52.90;;;;;;5016393;28;20418;-59
2021/09/25 12:49:08;;;;;;;4.37;3.60;;;36.00;53.20;;;;;;5016517;28;20414;-61